Time;durP1;ratioP1;P1;durP2;ratioP2;P2;SDS_P1;SDS_P2;PMS_P1;PMS_P2;Temp;Humidity;BMP_temperature;BMP_pressure;BME280_temperature;BME280_humidity;BME280_pressure;Samples;Min_cycle;Max_cycle;Signal;HPM_P1;HPM_P2
2022/11/21 00:00:12;;;;;;;5.83;2.90;;;;;;;-143.84;94.39;45180.47;5071065;28;20449;-79
2022/11/21 00:02:39;;;;;;;7.20;3.20;;;;;;;-143.84;94.37;45159.50;5071529;28;20510;-79
2022/11/21 00:05:07;;;;;;;3.43;2.70;;;;;;;-143.84;94.41;45167.13;5071246;28;20440;-79
2022/11/21 00:07:34;;;;;;;4.10;2.93;;;;;;;-143.84;94.44;45186.16;5079447;28;20786;-79
2022/11/21 00:10:02;;;;;;;5.10;3.10;;;;;;;-143.84;93.96;45188.06;5091555;28;20441;-79
2022/11/21 00:12:29;;;;;;;7.60;3.33;;;;;;;-143.84;94.14;45155.69;5091227;28;20860;-79
2022/11/21 00:14:57;;;;;;;6.83;3.30;;;;;;;-143.84;94.16;45163.31;5091131;28;20448;-79
2022/11/21 00:17:25;;;;;;;7.77;3.17;;;;;;;-143.84;94.46;45165.22;5090943;28;20982;-79
2022/11/21 00:19:52;;;;;;;7.70;3.67;;;;;;;-143.84;94.59;45184.25;5090305;28;20441;-79
2022/11/21 00:22:19;;;;;;;6.77;3.27;;;;;;;-143.84;94.70;45186.16;5090508;28;21031;-79
2022/11/21 00:24:46;;;;;;;3.70;2.90;;;;;;;-143.84;94.56;45159.50;5090537;28;20480;-79
2022/11/21 00:27:13;;;;;;;7.23;3.60;;;;;;;-143.84;94.54;45197.59;5090626;28;20446;-79
2022/11/21 00:29:40;;;;;;;16.20;4.40;;;;;;;-143.84;94.68;45180.47;5091065;28;20441;-79
2022/11/21 00:32:09;;;;;;;9.43;4.10;;;;;;;-143.84;94.99;45186.16;5091274;28;20429;-79
2022/11/21 00:34:36;;;;;;;12.07;3.83;;;;;;;-143.84;95.61;45169.03;5090974;28;20925;-79
2022/11/21 00:37:03;;;;;;;7.43;3.20;;;;;;;-143.84;95.78;45165.22;5091086;28;20441;-79
2022/11/21 00:39:30;;;;;;;7.53;3.30;;;;;;;-143.84;95.85;45209.03;5091097;28;20992;-78
2022/11/21 00:41:57;;;;;;;10.57;3.30;;;;;;;-143.84;95.93;45151.91;5094379;28;20510;-79
2022/11/21 00:44:24;;;;;;;10.87;3.70;;;;;;;-143.84;96.01;45170.94;5094774;28;20477;-79
2022/11/21 00:46:51;;;;;;;7.87;3.50;;;;;;;-143.84;95.50;45178.56;5095395;28;20478;-79
2022/11/21 00:49:20;;;;;;;7.40;3.40;;;;;;;-143.84;95.27;45193.78;5094758;28;20467;-79
2022/11/21 00:51:47;;;;;;;7.30;3.13;;;;;;;-143.84;94.80;45157.59;5095182;28;20834;-79
2022/11/21 00:54:15;;;;;;;17.03;3.80;;;;;;;-143.84;94.74;45170.94;5094717;28;20823;-79
2022/11/21 00:56:42;;;;;;;4.77;3.50;;;;;;;-143.84;94.55;45176.66;5094849;28;20505;-77
2022/11/21 00:59:09;;;;;;;6.93;3.00;;;;;;;-143.84;94.50;45174.75;5095295;28;20437;-77
2022/11/21 01:01:36;;;;;;;4.43;4.03;;;;;;;-143.84;94.73;45186.16;5094216;28;21007;-77
2022/11/21 01:04:03;;;;;;;9.53;4.50;;;;;;;-143.84;94.91;45184.25;5092926;28;20479;-77
2022/11/21 01:06:32;;;;;;;6.83;3.53;;;;;;;-143.84;95.10;45170.94;5094378;28;20798;-77
2022/11/21 01:08:59;;;;;;;11.40;4.57;;;;;;;-143.84;95.13;45167.13;5094890;28;20463;-77
2022/11/21 01:11:26;;;;;;;8.30;4.63;;;;;;;-143.84;95.22;45189.97;5094846;28;20477;-77
2022/11/21 01:13:54;;;;;;;7.47;4.70;;;;;;;-143.84;95.55;45189.97;5094721;28;20890;-77
2022/11/21 01:16:23;;;;;;;6.43;4.57;;;;;;;-143.84;95.78;45189.97;5094407;28;20883;-77
2022/11/21 01:18:50;;;;;;;12.47;4.70;;;;;;;-143.84;95.78;45178.56;5094272;28;20444;-77
2022/11/21 01:21:20;;;;;;;10.63;5.37;;;;;;;-143.84;95.89;45178.56;5094729;28;20429;-77
2022/11/21 01:23:49;;;;;;;9.60;5.83;;;;;;;-143.84;96.07;45167.13;5094286;28;20539;-77
2022/11/21 01:26:18;;;;;;;8.03;4.33;;;;;;;-143.84;95.98;45186.16;5094162;28;20505;-78
2022/11/21 01:28:47;;;;;;;20.20;5.90;;;;;;;-143.84;95.96;45207.13;5094155;28;20498;-77
2022/11/21 01:31:15;;;;;;;6.93;4.70;;;;;;;-143.84;95.86;45186.16;5094368;28;20520;-79
2022/11/21 01:33:42;;;;;;;8.37;4.57;;;;;;;-143.84;95.69;45188.06;5094139;28;20820;-79
2022/11/21 01:36:12;;;;;;;13.40;5.27;;;;;;;-143.84;95.60;45188.06;5094261;28;20434;-79
2022/11/21 01:38:39;;;;;;;19.87;5.80;;;;;;;-143.84;95.45;45178.56;5094061;28;20460;-79
2022/11/21 01:41:09;;;;;;;9.73;5.73;;;;;;;-143.84;95.21;45193.78;5094291;28;20498;-79
2022/11/21 01:43:37;;;;;;;18.83;5.70;;;;;;;-143.84;95.34;45170.94;5094552;28;20887;-79
2022/11/21 01:46:10;;;;;;;9.53;5.43;;;;;;;-143.84;95.69;45186.16;5094061;28;20522;-79
2022/11/21 01:48:41;;;;;;;19.80;7.00;;;;;;;-143.84;95.99;45186.16;5093293;28;20533;-79
2022/11/21 01:51:12;;;;;;;23.73;6.77;;;;;;;-143.84;96.52;45216.63;5092336;28;20432;-79
2022/11/21 01:53:42;;;;;;;16.70;6.83;;;;;;;-143.84;96.61;45176.66;5093029;28;20443;-79
2022/11/21 01:56:11;;;;;;;16.87;6.33;;;;;;;-143.84;96.87;45199.50;5092594;28;20523;-79
2022/11/21 01:58:41;;;;;;;27.53;6.13;;;;;;;-143.84;96.92;45197.59;5092623;28;20432;-79
2022/11/21 02:01:08;;;;;;;22.10;6.87;;;;;;;-143.84;97.03;45178.56;5092729;28;20430;-79
2022/11/21 02:03:39;;;;;;;22.17;7.97;;;;;;;-143.84;97.21;45176.66;5092435;28;20465;-79
2022/11/21 02:06:09;;;;;;;32.50;6.70;;;;;;;-143.84;97.04;45189.97;5092238;28;21146;-79
2022/11/21 02:08:37;;;;;;;18.90;6.50;;;;;;;-143.84;96.87;45205.22;5089958;28;20449;-79
2022/11/21 02:11:14;;;;;;;23.63;7.57;;;;;;;-143.84;96.85;45172.84;5091820;28;20498;-79
2022/11/21 02:13:41;;;;;;;18.07;7.13;;;;;;;-143.84;96.98;45199.50;5089774;28;20456;-79
2022/11/21 02:16:09;;;;;;;28.60;7.87;;;;;;;-143.84;97.21;45188.06;5088947;28;20447;-79
2022/11/21 02:18:36;;;;;;;16.93;8.20;;;;;;;-143.84;97.48;45188.06;5089904;28;20433;-79
2022/11/21 02:21:11;;;;;;;21.33;7.10;;;;;;;-143.84;97.29;45159.50;5091644;28;20502;-79
2022/11/21 02:23:45;;;;;;;38.37;8.17;;;;;;;-143.84;97.16;45197.59;5089601;28;20487;-79
2022/11/21 02:26:14;;;;;;;38.93;7.90;;;;;;;-143.84;96.96;45191.88;5092226;28;20433;-79
2022/11/21 02:28:41;;;;;;;36.33;7.80;;;;;;;-143.84;96.66;45165.22;5092440;28;20433;-79
2022/11/21 02:31:08;;;;;;;41.93;8.50;;;;;;;-143.84;96.41;45172.84;5092180;28;20444;-79
2022/11/21 02:33:35;;;;;;;23.77;7.90;;;;;;;-143.84;95.40;45231.88;5092560;28;20459;-78
2022/11/21 02:36:03;;;;;;;27.63;7.30;;;;;;;-143.84;95.13;45189.97;5092244;28;20916;-79
2022/11/21 02:38:33;;;;;;;25.87;8.00;;;;;;;-143.84;94.99;45205.22;5092038;28;20518;-79
2022/11/21 02:41:08;;;;;;;39.03;7.90;;;;;;;-143.84;94.42;45174.75;5092132;28;20423;-79
2022/11/21 02:43:42;;;;;;;29.80;7.77;;;;;;;-143.84;94.08;45186.16;5092150;28;20527;-79
2022/11/21 02:46:09;;;;;;;49.23;7.73;;;;;;;-143.84;92.80;45180.47;5091888;28;20510;-79
2022/11/21 02:48:37;;;;;;;24.20;7.43;;;;;;;-143.84;92.38;45199.50;5042100;28;1421247;-79
2022/11/21 02:51:05;;;;;;;40.03;8.30;;;;;;;-143.84;91.26;45191.88;5092943;28;20190;-79
2022/11/21 02:53:32;;;;;;;34.80;7.53;;;;;;;-143.84;90.98;45191.88;5093041;28;20436;-79
2022/11/21 02:55:59;;;;;;;31.90;7.80;;;;;;;-143.84;90.76;45161.41;5092696;28;20453;-78
2022/11/21 02:58:27;;;;;;;32.10;8.00;;;;;;;-143.84;90.53;45180.47;5091807;28;20496;-78
2022/11/21 03:00:55;;;;;;;51.10;9.67;;;;;;;-143.84;89.67;45178.56;5092029;28;20441;-79
2022/11/21 03:03:22;;;;;;;36.93;7.90;;;;;;;-143.84;88.68;45191.88;5089883;28;20508;-79
2022/11/21 03:05:50;;;;;;;34.07;7.87;;;;;;;-143.84;88.20;45191.88;5092258;28;20931;-78
2022/11/21 03:08:17;;;;;;;46.80;8.63;;;;;;;-143.84;88.16;45184.25;5091973;28;21009;-81
2022/11/21 03:10:44;;;;;;;41.23;8.10;;;;;;;-143.84;88.88;45170.94;5092611;28;20815;-81
2022/11/21 03:13:11;;;;;;;48.93;8.17;;;;;;;-143.84;87.82;45167.13;5091970;28;20438;-82
2022/11/21 03:15:39;;;;;;;43.07;7.90;;;;;;;-143.84;88.08;45163.31;5092477;28;20438;-81
2022/11/21 03:18:07;;;;;;;45.10;8.67;;;;;;;-143.84;87.90;45165.22;5092571;28;20434;-79
2022/11/21 03:20:34;;;;;;;52.90;7.90;;;;;;;-143.84;87.82;45199.50;5092312;28;20433;-79
2022/11/21 03:23:02;;;;;;;32.33;7.33;;;;;;;-143.84;88.38;45174.75;5092025;28;20509;-79
2022/11/21 03:25:30;;;;;;;48.37;8.50;;;;;;;-143.84;88.73;45176.66;5092065;28;20898;-78
2022/11/21 03:27:57;;;;;;;44.83;8.47;;;;;;;-143.84;88.98;45144.28;5092173;28;20508;-79
2022/11/21 03:30:26;;;;;;;44.63;8.27;;;;;;;-143.84;89.10;45176.66;5091679;28;20857;-79
2022/11/21 03:32:55;;;;;;;44.63;8.27;;;;;;;-143.84;89.07;45188.06;5092049;28;20448;-79
2022/11/21 03:35:25;;;;;;;35.37;9.20;;;;;;;-143.84;89.20;45172.84;5092086;28;20447;-78
2022/11/21 03:37:52;;;;;;;82.90;10.80;;;;;;;-143.84;89.46;45159.50;5091787;28;20449;-78
2022/11/21 03:40:19;;;;;;;54.57;10.40;;;;;;;-143.84;88.93;45178.56;5092240;28;20440;-78
2022/11/21 03:42:46;;;;;;;63.37;9.47;;;;;;;-143.84;88.99;45178.56;5092007;28;20442;-78
2022/11/21 03:45:13;;;;;;;66.30;9.97;;;;;;;-143.84;88.68;45184.25;5089406;28;20489;-78
2022/11/21 03:47:41;;;;;;;44.30;10.60;;;;;;;-143.84;88.61;45165.22;5091010;28;20446;-78
2022/11/21 03:50:09;;;;;;;53.07;9.13;;;;;;;-143.84;89.06;45148.09;5091975;28;20424;-80
2022/11/21 03:52:38;;;;;;;54.57;9.63;;;;;;;-143.84;89.64;45224.25;5091586;28;20442;-80
2022/11/21 03:55:06;;;;;;;47.10;10.07;;;;;;;-143.84;90.07;45180.47;5091175;28;20462;-80
2022/11/21 03:57:33;;;;;;;35.87;8.57;;;;;;;-143.84;90.07;45170.94;5091059;28;20436;-79
2022/11/21 04:00:00;;;;;;;67.37;10.93;;;;;;;-143.84;90.06;45146.19;5090850;28;20446;-79
2022/11/21 04:02:27;;;;;;;69.60;10.20;;;;;;;-143.84;90.07;45167.13;5091475;28;20925;-79
2022/11/21 04:04:54;;;;;;;65.20;10.73;;;;;;;-143.84;90.41;45167.13;5091379;28;20539;-78
2022/11/21 04:07:22;;;;;;;38.10;9.70;;;;;;;-143.84;90.35;45155.69;5091427;28;20435;-79
2022/11/21 04:09:51;;;;;;;38.27;9.13;;;;;;;-143.84;90.40;45157.59;5091667;28;20462;-77
2022/11/21 04:12:18;;;;;;;70.30;9.33;;;;;;;-143.84;90.33;45163.31;5091746;28;20448;-77
2022/11/21 04:14:45;;;;;;;48.20;9.87;;;;;;;-143.84;90.45;45161.41;5091459;28;21017;-77
2022/11/21 04:17:12;;;;;;;44.10;9.63;;;;;;;-143.84;90.75;45201.41;5091647;28;20502;-77
2022/11/21 04:19:39;;;;;;;54.23;9.30;;;;;;;-143.84;90.68;45176.66;5091061;28;20451;-77
2022/11/21 04:22:06;;;;;;;39.37;9.63;;;;;;;-143.84;90.58;45209.03;5091086;28;20440;-77
2022/11/21 04:24:33;;;;;;;45.87;8.27;;;;;;;-143.84;90.36;45155.69;5091162;28;20476;-77
2022/11/21 04:27:02;;;;;;;45.13;10.73;;;;;;;-143.84;90.32;45191.88;5091121;28;20439;-77
2022/11/21 04:29:29;;;;;;;45.33;9.33;;;;;;;-143.84;90.46;45172.84;5091158;28;20753;-77
2022/11/21 04:31:56;;;;;;;43.77;9.13;;;;;;;-143.84;90.46;45163.31;5091308;28;20465;-77
2022/11/21 04:34:23;;;;;;;55.20;9.53;;;;;;;-143.84;90.50;45161.41;5090994;28;20442;-77
2022/11/21 04:36:51;;;;;;;58.43;9.97;;;;;;;-143.84;90.44;45174.75;5090962;28;20449;-77
2022/11/21 04:39:18;;;;;;;56.63;8.13;;;;;;;-143.84;90.45;45161.41;5090515;28;20452;-77
2022/11/21 04:41:45;;;;;;;86.07;11.70;;;;;;;-143.84;90.89;45161.41;5090847;28;20442;-77
2022/11/21 04:44:14;;;;;;;50.73;10.40;;;;;;;-143.84;90.75;45148.09;5090777;28;20996;-77
2022/11/21 04:46:41;;;;;;;64.03;10.10;;;;;;;-143.84;90.49;45150.00;5091042;28;20441;-77
2022/11/21 04:49:08;;;;;;;37.47;9.70;;;;;;;-143.84;90.53;45172.84;5090640;28;21156;-78
2022/11/21 04:51:35;;;;;;;76.50;12.63;;;;;;;-143.84;90.28;45165.22;5091127;28;20527;-77
2022/11/21 04:54:02;;;;;;;53.00;9.30;;;;;;;-143.84;90.32;45184.25;5089826;28;20434;-76
2022/11/21 04:56:29;;;;;;;45.73;9.33;;;;;;;-143.84;89.87;45188.06;5071446;28;20532;-78
2022/11/21 04:58:56;;;;;;;59.33;10.07;;;;;;;-143.84;89.56;45170.94;5072508;28;20441;-79
2022/11/21 05:01:25;;;;;;;69.13;9.60;;;;;;;-143.84;89.53;45155.69;5090653;28;20448;-78
2022/11/21 05:03:53;;;;;;;59.43;8.90;;;;;;;-143.84;89.21;45199.50;5089928;28;20450;-78
2022/11/21 05:06:20;;;;;;;62.20;9.20;;;;;;;-143.84;89.45;45165.22;5088346;28;21146;-78
2022/11/21 05:08:47;;;;;;;56.80;9.70;;;;;;;-143.84;89.64;45151.91;5088880;28;20459;-76
2022/11/21 05:13:58;;;;;;;54.00;10.03;;;;;;;-143.84;89.43;45161.41;5090492;28;20430;-76
2022/11/21 05:16:27;;;;;;;83.47;10.23;;;;;;;-143.84;89.88;45180.47;5090685;28;20505;-76
2022/11/21 05:18:54;;;;;;;63.03;11.83;;;;;;;-143.84;89.79;45161.41;5089469;28;20446;-76
2022/11/21 05:21:21;;;;;;;58.00;10.80;;;;;;;-143.84;89.61;45212.84;5090833;28;20426;-75
2022/11/21 05:23:48;;;;;;;59.53;9.93;;;;;;;-143.84;89.36;45155.69;5090158;28;20438;-76
2022/11/21 05:26:15;;;;;;;39.77;8.90;;;;;;;-143.84;89.53;45189.97;5089968;28;20476;-77
2022/11/21 05:28:42;;;;;;;47.93;10.20;;;;;;;-143.84;90.38;45167.13;5094060;28;20446;-75
2022/11/21 05:31:10;;;;;;;73.20;10.70;;;;;;;-143.84;91.83;45184.25;5092932;28;20444;-76
2022/11/21 05:33:38;;;;;;;67.47;10.60;;;;;;;-143.84;92.14;45155.69;5093189;28;20863;-75
2022/11/21 05:36:05;;;;;;;55.57;8.60;;;;;;;-143.84;92.17;45148.09;5093222;28;20443;-76
2022/11/21 05:38:32;;;;;;;66.30;10.07;;;;;;;-143.84;92.42;45163.31;5093744;28;20441;-77
2022/11/21 05:41:00;;;;;;;81.37;11.73;;;;;;;-143.84;92.80;45159.50;5093922;28;20495;-77
2022/11/21 05:46:11;;;;;;;65.67;11.97;;;;;;;-143.84;91.99;45193.78;5092481;28;20884;-77
2022/11/21 05:48:39;;;;;;;54.47;9.77;;;;;;;-143.84;91.68;45197.59;5093131;28;20482;-77
2022/11/21 05:51:07;;;;;;;41.07;8.63;;;;;;;-143.84;91.07;45163.31;5093593;28;20771;-77
2022/11/21 05:53:35;;;;;;;46.00;8.30;;;;;;;-143.84;89.91;45163.31;5093982;28;20905;-77
2022/11/21 05:56:04;;;;;;;66.93;9.43;;;;;;;-143.84;88.36;45151.91;5093454;28;20449;-77
2022/11/21 05:58:31;;;;;;;65.07;9.47;;;;;;;-143.84;87.67;45157.59;5093802;28;20494;-77
2022/11/21 06:01:00;;;;;;;61.53;8.07;;;;;;;-143.84;83.78;45150.00;5093805;28;20434;-78
2022/11/21 06:03:29;;;;;;;45.57;7.93;;;;;;;-143.84;84.33;45155.69;5093810;28;20442;-78
2022/11/21 06:06:05;;;;;;;38.53;7.53;;;;;;;-143.84;82.63;45167.13;5093255;28;20493;-77
2022/11/21 06:08:34;;;;;;;55.87;8.80;;;;;;;-143.84;80.12;45165.22;5093402;28;20934;-78
2022/11/21 06:11:02;;;;;;;44.30;7.90;;;;;;;-143.84;79.03;45184.25;5093725;28;20495;-77
2022/11/21 06:13:32;;;;;;;33.63;6.50;;;;;;;-143.84;76.02;45148.09;5093548;28;20438;-77
2022/11/21 06:16:01;;;;;;;68.30;7.33;;;;;;;-143.84;74.57;45159.50;5093630;28;20518;-77
2022/11/21 06:18:29;;;;;;;39.03;6.33;;;;;;;-143.84;72.96;45170.94;5093095;28;20504;-77
2022/11/21 06:21:01;;;;;;;34.27;6.70;;;;;;;-143.84;71.54;45155.69;5093469;28;20436;-77
2022/11/21 06:23:30;;;;;;;50.63;7.43;;;;;;;-143.84;69.84;45153.81;5093355;28;21010;-77
2022/11/21 06:25:58;;;;;;;43.83;7.00;;;;;;;-143.84;71.31;45140.47;5093505;28;20476;-77
2022/11/21 06:28:26;;;;;;;38.30;6.53;;;;;;;-143.84;70.82;45144.28;5092042;28;20452;-77
2022/11/21 06:30:53;;;;;;;47.03;6.00;;;;;;;-143.84;74.71;45123.34;5092374;28;20439;-77
2022/11/21 06:33:20;;;;;;;52.77;7.60;;;;;;;-143.84;76.55;45151.91;5093859;28;20443;-78
2022/11/21 06:35:47;;;;;;;56.20;8.17;;;;;;;-143.84;79.26;45150.00;5092522;28;20507;-78
2022/11/21 06:38:17;;;;;;;34.70;5.90;;;;;;;-143.84;80.25;45170.94;5094456;28;20489;-77
2022/11/21 06:40:46;;;;;;;44.90;6.20;;;;;;;-143.84;79.71;45170.94;5091600;28;20442;-78
2022/11/21 06:43:13;;;;;;;25.83;4.77;;;;;;;-143.84;79.56;45151.91;5091065;28;20432;-78
2022/11/21 06:45:40;;;;;;;33.63;5.57;;;;;;;-143.84;80.02;45159.50;5087856;28;20543;-78
2022/11/21 06:48:07;;;;;;;26.93;5.40;;;;;;;-143.84;80.04;45142.38;5073448;28;20494;-78
2022/11/21 06:50:37;;;;;;;32.00;5.20;;;;;;;-143.84;81.10;45148.09;5073302;28;20443;-78
2022/11/21 06:53:04;;;;;;;33.37;6.00;;;;;;;-143.84;81.68;45163.31;5073212;28;20521;-78
2022/11/21 06:55:32;;;;;;;44.17;5.90;;;;;;;-143.84;81.70;45146.19;5073088;28;20439;-77
2022/11/21 06:58:00;;;;;;;30.67;5.63;;;;;;;-143.84;81.66;45159.50;5073232;28;20459;-77
2022/11/21 07:00:28;;;;;;;37.13;6.30;;;;;;;-143.84;81.96;45172.84;5072898;28;20440;-77
2022/11/21 07:02:59;;;;;;;45.37;7.23;;;;;;;-143.84;82.79;45167.13;5073146;28;20429;-78
2022/11/21 07:05:27;;;;;;;32.00;7.03;;;;;;;-143.84;83.27;45155.69;5072346;28;20471;-77
2022/11/21 07:07:58;;;;;;;47.87;6.27;;;;;;;-143.84;83.77;45155.69;5071949;28;20432;-78
2022/11/21 07:10:25;;;;;;;35.00;6.30;;;;;;;-143.84;84.13;45159.50;5072656;28;20461;-77
2022/11/21 07:15:42;;;;;;;40.73;7.50;;;;;;;-143.84;84.60;45150.00;5072387;28;20477;-77
2022/11/21 07:18:10;;;;;;;35.70;6.53;;;;;;;-143.84;84.92;45159.50;5072443;28;20450;-77
2022/11/21 07:20:37;;;;;;;50.87;6.90;;;;;;;-143.84;85.53;45174.75;5072183;28;20473;-77
2022/11/21 07:23:04;;;;;;;32.40;6.03;;;;;;;-143.84;85.74;45148.09;5071483;28;20450;-77
2022/11/21 07:25:31;;;;;;;39.37;7.30;;;;;;;-143.84;85.36;45169.03;5071976;28;20495;-78
2022/11/21 07:27:59;;;;;;;56.30;7.47;;;;;;;-143.84;85.29;45174.75;5071183;28;20939;-78
2022/11/21 07:30:27;;;;;;;48.20;7.77;;;;;;;-143.84;85.32;45148.09;5071705;28;20506;-78
2022/11/21 07:32:57;;;;;;;33.47;5.90;;;;;;;-143.84;85.30;45159.50;5070789;28;20498;-78
2022/11/21 07:35:25;;;;;;;45.77;6.47;;;;;;;-143.84;85.17;45138.56;5071187;28;20447;-78
2022/11/21 07:37:52;;;;;;;49.07;6.50;;;;;;;-143.84;84.52;45155.69;5070840;28;20451;-78
2022/11/21 07:40:20;;;;;;;34.80;6.60;;;;;;;-143.84;84.89;45165.22;5070529;28;20825;-79
2022/11/21 07:42:48;;;;;;;49.57;7.17;;;;;;;-143.84;85.43;45174.75;5070468;28;20510;-78
2022/11/21 07:45:16;;;;;;;30.57;6.50;;;;;;;-143.84;86.37;45188.06;5069881;28;20465;-78
2022/11/21 07:47:43;;;;;;;54.17;8.77;;;;;;;-143.84;87.45;45186.16;5070783;28;20480;-79
2022/11/21 07:50:12;;;;;;;30.10;5.77;;;;;;;-143.84;88.47;45136.66;5069989;28;20440;-78
2022/11/21 07:52:39;;;;;;;19.60;5.27;;;;;;;-143.84;88.96;45153.81;5069273;28;20451;-79
2022/11/21 07:55:08;;;;;;;25.17;6.00;;;;;;;-143.84;89.52;45170.94;5071366;28;20514;-79
2022/11/21 07:57:35;;;;;;;33.73;6.17;;;;;;;-143.84;89.44;45199.50;5071397;28;20448;-79
2022/11/21 08:00:03;;;;;;;28.50;5.83;;;;;;;-143.84;89.56;45157.59;5071230;28;21019;-79
2022/11/21 08:02:32;;;;;;;29.93;4.80;;;;;;;-143.84;88.72;45167.13;5071101;28;20447;-78
2022/11/21 08:04:59;;;;;;;25.07;5.37;;;;;;;-143.84;88.59;45167.13;5070926;28;20930;-79
2022/11/21 08:07:27;;;;;;;38.37;7.60;;;;;;;-143.84;87.14;45205.22;5070741;28;20444;-79
2022/11/21 08:09:55;;;;;;;27.30;5.23;;;;;;;-143.84;85.96;45165.22;5071146;28;20953;-79
2022/11/21 08:12:22;;;;;;;17.70;4.00;;;;;;;-143.84;84.07;45140.47;5070787;28;20495;-78
2022/11/21 08:14:49;;;;;;;17.73;4.73;;;;;;;-143.84;83.71;45161.41;5070503;28;20503;-78
2022/11/21 08:17:17;;;;;;;15.50;3.70;;;;;;;-143.84;84.34;45144.28;5090977;28;20451;-78
2022/11/21 08:19:44;;;;;;;17.90;4.60;;;;;;;-143.84;81.81;45140.47;5090946;28;20451;-78
2022/11/21 08:22:11;;;;;;;21.80;3.93;;;;;;;-143.84;80.72;45157.59;5090846;28;20984;-78
2022/11/21 08:24:40;;;;;;;31.00;5.20;;;;;;;-143.84;79.39;45153.81;5090902;28;20506;-78
2022/11/21 08:27:07;;;;;;;15.87;5.40;;;;;;;-143.84;78.82;45127.13;5091045;28;20561;-78
2022/11/21 08:29:34;;;;;;;20.83;4.37;;;;;;;-143.84;78.28;45155.69;5090968;28;20501;-78
2022/11/21 08:32:01;;;;;;;19.83;4.60;;;;;;;-143.84;77.70;45167.13;5091262;28;20481;-78
2022/11/21 08:34:31;;;;;;;16.30;3.83;;;;;;;-143.84;77.87;45159.50;5090639;28;20448;-78
2022/11/21 08:36:59;;;;;;;21.30;5.13;;;;;;;-143.84;77.66;45170.94;5090707;28;20515;-78
2022/11/21 08:39:26;;;;;;;24.03;4.40;;;;;;;-143.84;77.99;45159.50;5090928;28;20439;-78
2022/11/21 08:42:04;;;;;;;31.20;4.90;;;;;;;-143.84;78.29;45127.13;5085687;28;20887;-78
2022/11/21 08:44:32;;;;;;;28.20;4.83;;;;;;;-143.84;77.99;45163.31;5083608;28;20439;-79
2022/11/21 08:47:00;;;;;;;27.80;5.30;;;;;;;-143.84;76.63;45155.69;5083981;28;20483;-78
2022/11/21 08:49:27;;;;;;;27.40;5.80;;;;;;;-143.84;76.38;45153.81;5083949;28;20483;-79
2022/11/21 08:51:55;;;;;;;32.73;4.80;;;;;;;-143.84;73.90;45132.84;5085271;28;20436;-78
2022/11/21 08:54:23;;;;;;;51.13;5.00;;;;;;;-143.84;74.18;45151.91;5083729;28;20803;-78
2022/11/21 08:56:51;;;;;;;29.80;5.20;;;;;;;-143.84;73.93;45129.03;5084220;28;20436;-78
2022/11/21 08:59:20;;;;;;;26.80;4.50;;;;;;;-143.84;72.86;45153.81;5084438;28;21026;-80
2022/11/21 09:01:47;;;;;;;25.10;4.40;;;;;;;-143.84;71.96;45155.69;5086265;28;20467;-79
2022/11/21 09:04:14;;;;;;;28.50;4.57;;;;;;;-143.84;72.51;45148.09;5088991;28;20439;-79
2022/11/21 09:06:41;;;;;;;24.90;4.27;;;;;;;-143.84;72.83;45144.28;5089485;28;20929;-79
2022/11/21 09:09:09;;;;;;;38.80;7.10;;;;;;;-143.84;73.69;45127.13;5088779;28;20459;-81
2022/11/21 09:11:36;;;;;;;32.40;6.63;;;;;;;-143.84;72.50;45138.56;5089276;28;20448;-81
2022/11/21 09:19:34;;;;;;;26.10;6.40;;;;;;;-143.84;72.59;45169.03;5088126;28;20419;-81
2022/11/21 09:22:01;;;;;;;29.17;5.57;;;;;;;-143.84;71.33;45130.94;5088475;28;20440;-81
2022/11/21 09:24:28;;;;;;;30.57;5.77;;;;;;;-143.84;70.91;45136.66;5087904;28;20467;-81
2022/11/21 09:26:56;;;;;;;23.20;5.43;;;;;;;-143.84;69.56;45121.44;5089513;28;20464;-80
2022/11/21 09:29:23;;;;;;;44.63;5.70;;;;;;;-143.84;68.61;45134.75;5088359;28;20856;-80
2022/11/21 09:31:51;;;;;;;28.33;5.83;;;;;;;-143.84;68.68;45117.63;5087962;28;20439;-81
2022/11/21 09:34:19;;;;;;;43.40;5.50;;;;;;;-143.84;66.84;45113.81;5086634;28;20505;-81
2022/11/21 09:36:46;;;;;;;34.30;5.93;;;;;;;-143.84;66.33;45115.72;5089002;28;20456;-81
2022/11/21 09:39:14;;;;;;;36.53;6.40;;;;;;;-143.84;65.84;45127.13;5087953;28;20443;-81
2022/11/21 09:41:54;;;;;;;26.67;6.07;;;;;;;-143.84;64.93;45110.00;5094054;28;20447;-81
2022/11/21 09:44:40;;;;;;;34.53;5.13;;;;;;;-143.84;63.93;45129.03;5094424;28;20427;-81
2022/11/21 09:47:22;;;;;;;39.27;6.30;;;;;;;-143.84;64.92;45130.94;5084733;28;20579;-81
2022/11/21 09:49:53;;;;;;;33.97;6.60;;;;;;;-143.84;64.59;45115.72;5087492;28;20531;-81
2022/11/21 09:52:26;;;;;;;36.93;5.87;;;;;;;-143.84;65.45;45155.69;5088393;28;20448;-81
2022/11/21 09:54:59;;;;;;;39.50;5.97;;;;;;;-143.84;66.26;45119.53;5088317;28;20963;-81
2022/11/21 09:57:26;;;;;;;53.97;7.77;;;;;;;-143.84;66.12;45117.63;5088553;28;20505;-81
2022/11/21 09:59:56;;;;;;;38.77;6.43;;;;;;;-143.84;66.11;45115.72;5088775;28;21052;-81
2022/11/21 10:02:25;;;;;;;27.27;6.30;;;;;;;-143.84;66.66;45117.63;5089286;28;20525;-81
2022/11/21 10:04:53;;;;;;;31.43;6.20;;;;;;;-143.84;66.81;45111.91;5087502;28;20463;-81
2022/11/21 10:07:25;;;;;;;27.53;4.93;;;;;;;-143.84;67.71;45148.09;5088573;28;20464;-81
2022/11/21 10:10:16;;;;;;;33.50;6.57;;;;;;;-143.84;67.63;45104.28;5088685;28;20499;-80
2022/11/21 10:12:54;;;;;;;36.00;6.67;;;;;;;-143.84;67.95;45106.19;5086789;28;20443;-80
2022/11/21 10:15:32;;;;;;;40.03;5.80;;;;;;;-143.84;68.57;45132.84;5088038;28;20450;-80
2022/11/21 10:18:17;;;;;;;42.00;6.40;;;;;;;-143.84;68.69;45129.03;5089054;28;20957;-81
2022/11/21 10:20:54;;;;;;;40.40;6.20;;;;;;;-143.84;69.51;45132.84;5087034;28;20431;-85
2022/11/21 10:23:45;;;;;;;34.43;5.23;;;;;;;-143.84;69.68;45136.66;5088186;28;20442;-85
2022/11/21 10:26:18;;;;;;;26.50;5.80;;;;;;;-143.84;69.75;45142.38;5085499;28;20492;-85
2022/11/21 10:28:51;;;;;;;39.97;7.20;;;;;;;-143.84;68.89;45138.56;5086863;28;20440;-85
2022/11/21 10:31:19;;;;;;;34.47;5.60;;;;;;;-143.84;68.43;45148.09;5087157;28;21265;-84
2022/11/21 10:33:50;;;;;;;33.60;5.50;;;;;;;-143.84;68.40;45110.00;5086916;28;20557;-82
2022/11/21 10:36:27;;;;;;;25.87;6.43;;;;;;;-143.84;68.04;45108.09;5088021;28;20448;-82
2022/11/21 10:39:00;;;;;;;37.07;6.40;;;;;;;-143.84;68.00;45144.28;5084764;28;20455;-83
2022/11/21 10:41:41;;;;;;;31.00;5.70;;;;;;;-143.84;68.12;45115.72;5091646;28;20489;-82
2022/11/21 10:47:02;;;;;;;32.60;6.00;;;;;;;-143.84;70.35;45111.91;5092775;28;20616;-82
2022/11/21 10:49:34;;;;;;;36.67;6.70;;;;;;;-143.84;70.85;45144.28;5092833;28;20476;-83
2022/11/21 10:52:07;;;;;;;45.60;7.27;;;;;;;-143.84;71.24;45129.03;5093187;28;20431;-82
2022/11/21 10:55:08;;;;;;;36.50;6.13;;;;;;;-143.84;71.74;45132.84;5092997;28;20439;-82
2022/11/21 10:57:44;;;;;;;34.10;6.10;;;;;;;-143.84;71.96;45123.34;5092819;28;20443;-80
2022/11/21 11:00:21;;;;;;;40.33;6.97;;;;;;;-143.84;72.76;45127.13;5092889;28;20466;-81
2022/11/21 11:03:15;;;;;;;35.77;6.03;;;;;;;-143.84;73.35;45125.22;5092977;28;20439;-82
2022/11/21 11:05:54;;;;;;;44.00;7.80;;;;;;;-143.84;73.36;45134.75;5092003;28;20525;-81
2022/11/21 11:08:21;;;;;;;30.53;6.67;;;;;;;-143.84;72.90;45125.22;5091539;28;20990;-82
2022/11/21 11:11:02;;;;;;;29.30;5.97;;;;;;;-143.84;73.81;45125.22;5090506;28;20497;-82
2022/11/21 11:13:36;;;;;;;45.60;7.43;;;;;;;-143.84;75.54;45111.91;5091255;28;20432;-82
2022/11/21 11:16:06;;;;;;;48.13;7.43;;;;;;;-143.84;76.77;45111.91;5092529;28;20530;-82
2022/11/21 11:18:36;;;;;;;45.60;7.17;;;;;;;-143.84;76.88;45140.47;5092257;28;20436;-82
2022/11/21 11:21:14;;;;;;;46.20;7.67;;;;;;;-143.84;76.82;45106.19;5091856;28;20949;-82
2022/11/21 11:23:42;;;;;;;47.03;8.57;;;;;;;-143.84;76.60;45146.19;5092100;28;20543;-81
2022/11/21 11:26:21;;;;;;;29.57;6.93;;;;;;;-143.84;76.92;45138.56;5091949;28;20486;-82
2022/11/21 11:28:48;;;;;;;35.17;9.40;;;;;;;-143.84;77.49;45144.28;5092391;28;20995;-82
2022/11/21 11:31:16;;;;;;;46.90;7.47;;;;;;;-143.84;77.15;45134.75;5092253;28;20941;-81
2022/11/21 11:33:51;;;;;;;55.57;8.13;;;;;;;-143.84;78.47;45136.66;5091864;28;20456;-81